createdAt,value
2023-01-22T00:00:58.089Z,-1.197205
2023-01-22T00:02:07.825Z,-1.197205
2023-01-22T00:03:16.511Z,-1.197205
2023-01-22T00:04:26.174Z,-1.197205
2023-01-22T00:05:33.844Z,-1.197205
2023-01-22T00:06:43.489Z,-1.227417
2023-01-22T00:07:52.200Z,-1.217346
2023-01-22T00:09:00.898Z,-1.217346
2023-01-22T00:10:10.576Z,-1.217346
2023-01-22T00:11:19.226Z,-1.197205
2023-01-22T00:12:27.942Z,-1.187134
2023-01-22T00:13:37.576Z,-1.146851
2023-01-22T00:14:47.337Z,-1.146851
2023-01-22T00:15:57.054Z,-1.166992
2023-01-22T00:17:05.712Z,-1.146851
2023-01-22T00:18:13.354Z,-1.146851
2023-01-22T00:19:23.029Z,-1.166992
2023-01-22T00:20:30.687Z,-1.146851
2023-01-22T00:21:40.388Z,-1.166992
2023-01-22T00:22:50.051Z,-1.187134
2023-01-22T00:23:59.739Z,-1.166992
2023-01-22T00:25:09.396Z,-1.13678
2023-01-22T00:26:18.056Z,-1.146851
2023-01-22T00:27:25.740Z,-1.13678
2023-01-22T00:28:34.392Z,-1.116638
2023-01-22T00:29:43.055Z,-1.116638
2023-01-22T00:30:50.744Z,-1.106567
2023-01-22T00:31:59.533Z,-1.116638
2023-01-22T00:33:08.071Z,-1.116638
2023-01-22T00:34:17.810Z,-1.13678
2023-01-22T00:35:26.480Z,-1.146851
2023-01-22T00:36:35.162Z,-1.13678
2023-01-22T00:37:44.835Z,-1.13678
2023-01-22T00:38:52.481Z,-1.13678
2023-01-22T00:40:02.174Z,-1.13678
2023-01-22T00:41:11.796Z,-1.146851
2023-01-22T00:42:20.486Z,-1.13678
2023-01-22T00:43:30.146Z,-1.146851
2023-01-22T00:44:38.801Z,-1.13678
2023-01-22T00:45:46.445Z,-1.146851
2023-01-22T00:46:56.109Z,-1.146851
2023-01-22T00:48:03.795Z,-1.146851
2023-01-22T00:49:13.534Z,-1.13678
2023-01-22T00:50:23.265Z,-1.13678
2023-01-22T00:51:31.927Z,-1.13678
2023-01-22T00:52:41.611Z,-1.13678
2023-01-22T00:53:51.323Z,-1.116638
2023-01-22T00:55:01.005Z,-1.13678
2023-01-22T00:56:10.788Z,-1.13678
2023-01-22T00:57:20.361Z,-1.13678
2023-01-22T00:58:29.017Z,-1.116638
2023-01-22T00:59:38.697Z,-1.116638
2023-01-22T01:00:46.380Z,-1.106567
2023-01-22T01:01:56.036Z,-1.106567
2023-01-22T01:03:05.638Z,-1.076355
2023-01-22T01:04:13.299Z,-1.076355
2023-01-22T01:05:23.014Z,-1.066284
2023-01-22T01:06:30.666Z,-1.076355
2023-01-22T01:07:40.318Z,-1.086426
2023-01-22T01:08:49.998Z,-1.076355
2023-01-22T01:09:59.630Z,-1.076355
2023-01-22T01:11:08.298Z,-1.106567
2023-01-22T01:12:16.950Z,-1.076355
2023-01-22T01:13:24.750Z,-1.066284
2023-01-22T01:14:34.358Z,-1.066284
2023-01-22T01:15:42.093Z,-1.046143
2023-01-22T01:16:50.673Z,-1.01593
2023-01-22T01:18:00.318Z,-1.036072
2023-01-22T01:19:09.032Z,-1.01593
2023-01-22T01:20:18.876Z,-1.01593
2023-01-22T01:21:28.343Z,-1.01593
2023-01-22T01:22:37.069Z,-1.036072
2023-01-22T01:23:46.781Z,-1.01593
2023-01-22T01:24:54.414Z,-1.01593
2023-01-22T01:26:03.071Z,-1.036072
2023-01-22T01:27:12.733Z,-1.036072
2023-01-22T01:28:20.409Z,-1.036072
2023-01-22T01:29:30.189Z,-1.01593
2023-01-22T01:30:39.850Z,-1.005859
2023-01-22T01:31:48.746Z,-1.005859
2023-01-22T01:32:58.358Z,-0.985718
2023-01-22T01:34:07.089Z,-1.005859
2023-01-22T01:35:16.823Z,-1.005859
2023-01-22T01:36:46.111Z,-1.005859
2023-01-22T01:37:36.253Z,-0.965576
2023-01-22T01:38:45.911Z,-0.985718
2023-01-22T01:39:53.660Z,-0.965576
2023-01-22T01:41:03.398Z,-1.005859
2023-01-22T01:42:12.085Z,-0.985718
2023-01-22T01:43:20.803Z,-0.985718
2023-01-22T01:44:30.638Z,-0.955505
2023-01-22T01:45:38.438Z,-0.965576
2023-01-22T01:46:48.190Z,-0.955505
2023-01-22T01:47:58.039Z,-0.965576
2023-01-22T01:49:05.873Z,-0.965576
2023-01-22T01:50:15.839Z,-0.985718
2023-01-22T01:51:24.394Z,-0.985718
2023-01-22T01:52:33.009Z,-1.01593
2023-01-22T01:53:42.692Z,-1.005859
2023-01-22T01:54:51.324Z,-1.01593
2023-01-22T01:55:59.963Z,-1.01593
2023-01-22T01:57:09.664Z,-1.01593
2023-01-22T01:58:17.309Z,-1.046143
2023-01-22T01:59:26.966Z,-1.036072
2023-01-22T02:00:36.658Z,-1.01593
2023-01-22T02:01:44.510Z,-1.036072
2023-01-22T02:02:53.994Z,-1.036072
2023-01-22T02:04:02.653Z,-1.036072
2023-01-22T02:05:11.315Z,-1.01593
2023-01-22T02:06:20.966Z,-1.01593
2023-01-22T02:07:29.659Z,-1.005859
2023-01-22T02:08:39.371Z,-1.01593
2023-01-22T02:09:49.036Z,-1.036072
2023-01-22T02:10:57.692Z,-1.01593
2023-01-22T02:12:06.369Z,-1.046143
2023-01-22T02:13:15.012Z,-1.01593
2023-01-22T02:14:24.697Z,-1.036072
2023-01-22T02:15:34.348Z,-1.046143
2023-01-22T02:16:42.129Z,-1.036072
2023-01-22T02:17:51.890Z,-1.036072
2023-01-22T02:19:01.429Z,-1.046143
2023-01-22T02:20:09.114Z,-1.046143
2023-01-22T02:21:18.770Z,-1.01593
2023-01-22T02:22:26.421Z,-1.036072
2023-01-22T02:23:36.097Z,-1.005859
2023-01-22T02:24:45.856Z,-1.01593
2023-01-22T02:25:53.576Z,-1.01593
2023-01-22T02:27:03.246Z,-1.046143
2023-01-22T02:28:11.895Z,-1.046143
2023-01-22T02:29:20.545Z,-1.046143
2023-01-22T02:30:31.251Z,-1.046143
2023-01-22T02:31:38.915Z,-1.046143
2023-01-22T02:32:48.528Z,-1.046143
2023-01-22T02:33:58.346Z,-1.046143
2023-01-22T02:35:07.884Z,-1.036072
2023-01-22T02:36:17.564Z,-1.046143
2023-01-22T02:37:26.262Z,-1.046143
2023-01-22T02:38:34.907Z,-1.066284
2023-01-22T02:39:44.592Z,-1.046143
2023-01-22T02:40:53.243Z,-1.036072
2023-01-22T02:42:01.906Z,-1.066284
2023-01-22T02:43:11.584Z,-1.036072
2023-01-22T02:44:19.248Z,-1.046143
2023-01-22T02:45:28.941Z,-1.076355
2023-01-22T02:46:38.613Z,-1.066284
2023-01-22T02:47:47.303Z,-1.076355
2023-01-22T02:48:57.135Z,-1.066284
2023-01-22T02:50:06.098Z,-1.076355
2023-01-22T02:51:15.711Z,-1.046143
2023-01-22T02:52:25.283Z,-1.036072
2023-01-22T02:53:33.930Z,-1.01593
2023-01-22T02:54:43.633Z,-1.01593
2023-01-22T02:55:52.315Z,-1.01593
2023-01-22T02:56:59.971Z,-1.01593
2023-01-22T02:58:09.631Z,-1.005859
2023-01-22T02:59:18.307Z,-1.01593
2023-01-22T03:00:27.103Z,-1.01593
2023-01-22T03:01:36.769Z,-1.01593
2023-01-22T03:02:44.426Z,-1.046143
2023-01-22T03:03:54.091Z,-1.01593
2023-01-22T03:05:02.772Z,-1.036072
2023-01-22T03:06:10.550Z,-1.046143
2023-01-22T03:07:20.103Z,-1.066284
2023-01-22T03:08:27.801Z,-1.066284
2023-01-22T03:09:35.591Z,-1.036072
2023-01-22T03:10:45.292Z,-1.036072
2023-01-22T03:11:53.994Z,-1.01593
2023-01-22T03:13:03.682Z,-1.036072
2023-01-22T03:14:12.429Z,-1.01593
2023-01-22T03:15:21.289Z,-1.005859
2023-01-22T03:16:31.295Z,-0.985718
2023-01-22T03:17:38.992Z,-1.005859
2023-01-22T03:18:48.664Z,-1.005859
2023-01-22T03:19:58.407Z,-1.036072
2023-01-22T03:21:07.091Z,-1.01593
2023-01-22T03:22:16.852Z,-1.036072
2023-01-22T03:23:26.427Z,-1.01593
2023-01-22T03:24:35.110Z,-1.036072
2023-01-22T03:25:43.783Z,-1.036072
2023-01-22T03:26:52.437Z,-1.046143
2023-01-22T03:28:01.081Z,-1.066284
2023-01-22T03:29:10.780Z,-1.066284
2023-01-22T03:30:18.544Z,-1.036072
2023-01-22T03:31:29.202Z,-1.046143
2023-01-22T03:32:37.846Z,-1.036072
2023-01-22T03:33:47.589Z,-1.01593
2023-01-22T03:34:56.380Z,-1.01593
2023-01-22T03:36:03.165Z,-1.01593
2023-01-22T03:37:12.919Z,-1.01593
2023-01-22T03:38:20.798Z,-1.046143
2023-01-22T03:39:30.415Z,-1.036072
2023-01-22T03:40:41.106Z,-1.046143
2023-01-22T03:41:49.780Z,-1.036072
2023-01-22T03:42:58.435Z,-1.01593
2023-01-22T03:44:07.106Z,-1.01593
2023-01-22T03:45:16.867Z,-1.036072
2023-01-22T03:46:26.585Z,-1.005859
2023-01-22T03:47:35.246Z,-1.01593
2023-01-22T03:48:44.947Z,-1.01593
2023-01-22T03:49:54.637Z,-1.01593
2023-01-22T03:51:03.340Z,-1.01593
2023-01-22T03:52:12.981Z,-1.01593
2023-01-22T03:53:21.649Z,-1.005859
2023-01-22T03:54:30.444Z,-1.005859
2023-01-22T03:55:40.063Z,-1.005859
2023-01-22T03:56:47.729Z,-1.01593
2023-01-22T03:57:57.466Z,-1.01593
2023-01-22T03:59:07.139Z,-1.036072
2023-01-22T04:00:17.145Z,-1.01593
2023-01-22T04:01:26.587Z,-1.046143
2023-01-22T04:02:35.183Z,-1.066284
2023-01-22T04:03:42.832Z,-1.046143
2023-01-22T04:04:52.503Z,-1.046143
2023-01-22T04:06:01.171Z,-1.046143
2023-01-22T04:07:10.832Z,-1.005859
2023-01-22T04:08:20.495Z,-1.036072
2023-01-22T04:09:28.175Z,-1.005859
2023-01-22T04:10:37.972Z,-1.01593
2023-01-22T04:11:47.532Z,-1.005859
2023-01-22T04:12:57.181Z,-1.036072
2023-01-22T04:14:06.849Z,-1.01593
2023-01-22T04:15:14.527Z,-1.036072
2023-01-22T04:16:23.230Z,-1.036072
2023-01-22T04:17:31.829Z,-1.036072
2023-01-22T04:18:40.538Z,-1.01593
2023-01-22T04:19:49.192Z,-1.01593
2023-01-22T04:20:57.859Z,-1.01593
2023-01-22T04:22:06.518Z,-1.036072
2023-01-22T04:23:16.184Z,-1.005859
2023-01-22T04:24:24.848Z,-1.005859
2023-01-22T04:25:33.522Z,-1.005859
2023-01-22T04:26:43.323Z,-1.01593
2023-01-22T04:27:51.862Z,-1.046143
2023-01-22T04:29:01.530Z,-1.046143
2023-01-22T04:30:10.179Z,-1.066284
2023-01-22T04:31:18.989Z,-1.046143
2023-01-22T04:32:28.598Z,-1.046143
2023-01-22T04:33:37.263Z,-1.066284
2023-01-22T04:34:47.053Z,-1.046143
2023-01-22T04:35:56.862Z,-1.036072
2023-01-22T04:37:05.563Z,-1.036072
2023-01-22T04:38:15.332Z,-1.01593
2023-01-22T04:39:24.167Z,-1.046143
2023-01-22T04:40:30.947Z,-1.036072
2023-01-22T04:41:40.691Z,-1.005859
2023-01-22T04:42:48.633Z,-1.01593
2023-01-22T04:43:58.318Z,-1.01593
2023-01-22T04:45:08.053Z,-1.01593
2023-01-22T04:46:17.773Z,-1.01593
2023-01-22T04:47:27.403Z,-1.046143
2023-01-22T04:48:36.062Z,-1.046143
2023-01-22T04:49:43.760Z,-1.036072
2023-01-22T04:50:53.475Z,-1.005859
2023-01-22T04:52:01.091Z,-1.01593
2023-01-22T04:53:10.757Z,-1.01593
2023-01-22T04:54:20.410Z,-0.985718
2023-01-22T04:55:28.124Z,-1.005859
2023-01-22T04:56:37.798Z,-1.005859
2023-01-22T04:57:46.455Z,-1.01593
2023-01-22T04:58:54.224Z,-1.01593
2023-01-22T05:00:03.775Z,-1.005859
2023-01-22T05:01:12.538Z,-1.005859
2023-01-22T05:02:21.202Z,-0.985718
2023-01-22T05:03:30.806Z,-1.046143
2023-01-22T05:04:38.461Z,-1.036072
2023-01-22T05:05:48.129Z,-1.066284
2023-01-22T05:06:57.807Z,-1.076355
2023-01-22T05:08:05.461Z,-1.106567
2023-01-22T05:09:15.153Z,-1.116638
2023-01-22T05:10:24.844Z,-1.13678
2023-01-22T05:11:34.498Z,-1.116638
2023-01-22T05:12:44.187Z,-1.13678
2023-01-22T05:13:52.862Z,-1.116638
2023-01-22T05:15:04.102Z,-1.116638
2023-01-22T05:16:13.210Z,-1.116638
2023-01-22T05:17:22.829Z,-1.106567
2023-01-22T05:18:32.521Z,-1.106567
2023-01-22T05:19:40.193Z,-1.106567
2023-01-22T05:20:48.819Z,-1.106567
2023-01-22T05:21:58.476Z,-1.116638
2023-01-22T05:23:07.137Z,-1.13678
2023-01-22T05:24:16.827Z,-1.13678
2023-01-22T05:25:25.509Z,-1.146851
2023-01-22T05:26:33.152Z,-1.166992
2023-01-22T05:27:42.814Z,-1.166992
2023-01-22T05:28:50.477Z,-1.187134
2023-01-22T05:29:59.132Z,-1.187134
2023-01-22T05:31:08.022Z,-1.187134
2023-01-22T05:32:17.487Z,-1.2677
2023-01-22T05:33:27.186Z,-1.328125
2023-01-22T05:34:34.831Z,-1.348267
2023-01-22T05:35:44.528Z,-1.398621
2023-01-22T05:36:54.179Z,-1.398621
2023-01-22T05:38:01.850Z,-1.428833
2023-01-22T05:39:11.513Z,-1.438904
2023-01-22T05:40:20.398Z,-1.509399
2023-01-22T05:41:28.854Z,-1.529541
2023-01-22T05:42:38.516Z,-1.559753
2023-01-22T05:43:47.186Z,-1.559753
2023-01-22T05:44:56.842Z,-1.610107
2023-01-22T05:46:05.574Z,-1.680603
2023-01-22T05:47:13.294Z,-1.77124
2023-01-22T05:48:22.834Z,-1.831665
2023-01-22T05:49:32.516Z,-1.89209
2023-01-22T05:50:41.235Z,-1.972656
2023-01-22T05:51:50.925Z,-2.043152
2023-01-22T05:52:58.603Z,-2.053223
2023-01-22T05:54:08.293Z,-2.083435
2023-01-22T05:55:16.950Z,-2.123718
2023-01-22T05:56:25.622Z,-2.153931
2023-01-22T05:57:35.280Z,-2.133789
2023-01-22T05:58:42.987Z,-2.153931
2023-01-22T05:59:51.720Z,-2.153931
2023-01-22T06:01:01.375Z,-2.184143
2023-01-22T06:02:09.041Z,-2.194214
2023-01-22T06:03:18.843Z,-2.224426
2023-01-22T06:04:29.379Z,-2.234497
2023-01-22T06:05:38.152Z,-2.304993
2023-01-22T06:06:47.845Z,-2.345276
2023-01-22T06:07:56.484Z,-2.39563
2023-01-22T06:09:05.163Z,-2.415771
2023-01-22T06:10:14.835Z,-2.405701
2023-01-22T06:11:23.483Z,-2.405701
2023-01-22T06:12:33.162Z,-2.415771
2023-01-22T06:13:42.846Z,-2.405701
2023-01-22T06:14:50.520Z,-2.415771
2023-01-22T06:16:00.398Z,-2.415771
2023-01-22T06:17:08.919Z,-2.445984
2023-01-22T06:18:18.592Z,-2.445984
2023-01-22T06:19:28.388Z,-2.445984
2023-01-22T06:20:35.937Z,-2.466125
2023-01-22T06:21:45.667Z,-2.445984
2023-01-22T06:22:54.390Z,-2.435913
2023-01-22T06:24:02.044Z,-2.405701
2023-01-22T06:25:10.699Z,-2.405701
2023-01-22T06:26:19.361Z,-2.365417
2023-01-22T06:27:29.030Z,-2.315063
2023-01-22T06:28:38.711Z,-2.284851
2023-01-22T06:29:46.377Z,-2.264709
2023-01-22T06:30:56.194Z,-2.214355
2023-01-22T06:32:04.710Z,-2.194214
2023-01-22T06:33:12.383Z,-2.164001
2023-01-22T06:34:22.084Z,-2.103577
2023-01-22T06:35:29.850Z,-2.073364
2023-01-22T06:36:42.710Z,-2.043152
2023-01-22T06:37:50.077Z,-2.002869
2023-01-22T06:38:59.787Z,-1.972656
2023-01-22T06:40:09.463Z,-1.982727
2023-01-22T06:41:18.130Z,-1.952515
2023-01-22T06:42:25.785Z,-1.942444
2023-01-22T06:43:34.432Z,-1.902161
2023-01-22T06:44:42.112Z,-1.871948
2023-01-22T06:45:50.790Z,-1.821594
2023-01-22T06:47:00.472Z,-1.791382
2023-01-22T06:48:08.129Z,-1.761169
2023-01-22T06:49:17.786Z,-1.720886
2023-01-22T06:50:25.476Z,-1.710815
2023-01-22T06:51:33.235Z,-1.710815
2023-01-22T06:52:42.800Z,-1.680603
2023-01-22T06:53:50.452Z,-1.650391
2023-01-22T06:54:59.110Z,-1.650391
2023-01-22T06:56:08.834Z,-1.620178
2023-01-22T06:57:17.523Z,-1.620178
2023-01-22T06:58:27.174Z,-1.610107
2023-01-22T06:59:37.233Z,-1.579895
2023-01-22T07:00:46.493Z,-1.559753
2023-01-22T07:01:56.248Z,-1.529541
2023-01-22T07:03:03.849Z,-1.539612
2023-01-22T07:04:12.498Z,-1.509399
2023-01-22T07:05:23.144Z,-1.529541
2023-01-22T07:06:31.840Z,-1.499329
2023-01-22T07:07:41.658Z,-1.509399
2023-01-22T07:08:51.235Z,-1.499329
2023-01-22T07:10:00.893Z,-1.479187
2023-01-22T07:11:10.639Z,-1.479187
2023-01-22T07:12:19.352Z,-1.499329
2023-01-22T07:13:28.136Z,-1.459045
2023-01-22T07:14:37.946Z,-1.459045
2023-01-22T07:15:45.544Z,-1.438904
2023-01-22T07:16:55.148Z,-1.438904
2023-01-22T07:18:03.833Z,-1.428833
2023-01-22T07:19:12.459Z,-1.398621
2023-01-22T07:20:22.151Z,-1.368408
2023-01-22T07:21:29.798Z,-1.368408
2023-01-22T07:22:39.462Z,-1.368408
2023-01-22T07:23:48.248Z,-1.378479
2023-01-22T07:24:55.834Z,-1.328125
2023-01-22T07:26:05.491Z,-1.368408
2023-01-22T07:27:14.147Z,-1.328125
2023-01-22T07:28:23.812Z,-1.348267
2023-01-22T07:29:32.471Z,-1.328125
2023-01-22T07:30:41.191Z,-1.318054
2023-01-22T07:31:50.845Z,-1.318054
2023-01-22T07:32:59.521Z,-1.318054
2023-01-22T07:34:08.168Z,-1.297913
2023-01-22T07:35:17.832Z,-1.318054
2023-01-22T07:36:27.564Z,-1.2677
2023-01-22T07:37:37.191Z,-1.2677
2023-01-22T07:38:46.876Z,-1.257629
2023-01-22T07:39:54.638Z,-1.227417
2023-01-22T07:41:05.596Z,-1.217346
2023-01-22T07:42:14.837Z,-1.197205
2023-01-22T07:43:24.476Z,-1.197205
2023-01-22T07:44:34.156Z,-1.217346
2023-01-22T07:45:41.792Z,-1.217346
2023-01-22T07:46:51.533Z,-1.217346
2023-01-22T07:48:00.136Z,-1.227417
2023-01-22T07:49:08.843Z,-1.247559
2023-01-22T07:50:18.879Z,-1.227417
2023-01-22T07:51:28.242Z,-1.197205
2023-01-22T07:52:37.893Z,-1.217346
2023-01-22T07:53:47.633Z,-1.217346
2023-01-22T07:54:55.288Z,-1.217346
2023-01-22T07:56:04.111Z,-1.197205
2023-01-22T07:57:13.681Z,-1.146851
2023-01-22T07:58:21.327Z,-1.166992
2023-01-22T07:59:31.018Z,-1.13678
2023-01-22T08:00:38.712Z,-1.13678
2023-01-22T08:01:48.343Z,-1.086426
2023-01-22T08:02:59.014Z,-1.076355
2023-01-22T08:04:07.664Z,-1.086426
2023-01-22T08:05:17.371Z,-1.046143
2023-01-22T08:06:26.029Z,-1.046143
2023-01-22T08:07:33.696Z,-1.036072
2023-01-22T08:08:43.368Z,-1.066284
2023-01-22T08:09:52.036Z,-1.076355
2023-01-22T08:11:00.696Z,-1.046143
2023-01-22T08:12:10.453Z,-1.01593
2023-01-22T08:13:19.996Z,-1.01593
2023-01-22T08:14:29.661Z,-0.965576
2023-01-22T08:15:38.328Z,-0.925293
2023-01-22T08:16:47.064Z,-0.905151
2023-01-22T08:17:56.658Z,-0.864868
2023-01-22T08:19:04.318Z,-0.864868
2023-01-22T08:20:13.011Z,-0.834656
2023-01-22T08:21:22.687Z,-0.804443
2023-01-22T08:22:31.371Z,-0.744019
2023-01-22T08:23:41.036Z,-0.713806
2023-01-22T08:24:50.659Z,-0.673523
2023-01-22T08:25:58.333Z,-0.613098
2023-01-22T08:27:07.989Z,-0.592957
2023-01-22T08:28:15.834Z,-0.562744
2023-01-22T08:29:25.380Z,-0.502319
2023-01-22T08:30:43.452Z,-0.472107
2023-01-22T08:31:44.728Z,-0.431824
2023-01-22T08:32:54.332Z,-0.38147
2023-01-22T08:34:02.013Z,-0.341187
2023-01-22T08:35:13.016Z,-0.321045
2023-01-22T08:36:21.340Z,-0.280762
2023-01-22T08:37:31.003Z,-0.290833
2023-01-22T08:38:39.649Z,-0.280762
2023-01-22T08:39:49.304Z,-0.210266
2023-01-22T08:40:57.955Z,-0.169983
2023-01-22T08:42:07.601Z,-0.149841
2023-01-22T08:43:16.264Z,-0.099487
2023-01-22T08:44:25.049Z,-0.028992
2023-01-22T08:45:34.635Z,0.051575
2023-01-22T08:46:43.280Z,0.12207
2023-01-22T08:47:52.927Z,0.192566
2023-01-22T08:49:02.622Z,0.232849
2023-01-22T08:50:11.281Z,0.323486
2023-01-22T08:51:20.992Z,0.283203
2023-01-22T08:52:29.638Z,0.283203
2023-01-22T08:53:38.331Z,0.162354
2023-01-22T08:54:47.984Z,0.192566
2023-01-22T08:55:55.637Z,0.283203
2023-01-22T08:57:05.358Z,0.343628
2023-01-22T08:58:15.044Z,0.444336
2023-01-22T08:59:23.716Z,0.49469
2023-01-22T09:00:33.463Z,0.524902
2023-01-22T09:01:43.057Z,0.575256
2023-01-22T09:02:50.743Z,0.62561
2023-01-22T09:04:00.387Z,0.675964
2023-01-22T09:05:08.048Z,0.766602
2023-01-22T09:06:16.710Z,0.796814
2023-01-22T09:07:26.352Z,0.907593
2023-01-22T09:08:35.024Z,0.988159
2023-01-22T09:09:44.699Z,1.058655
2023-01-22T09:10:54.350Z,1.139221
2023-01-22T09:12:03.020Z,1.189575
2023-01-22T09:13:12.688Z,1.300354
2023-01-22T09:14:20.387Z,1.340637
2023-01-22T09:15:29.118Z,1.37085
2023-01-22T09:16:38.944Z,1.401062
2023-01-22T09:17:46.466Z,1.451416
2023-01-22T09:18:56.124Z,1.481628
2023-01-22T09:20:05.864Z,1.491699
2023-01-22T09:21:14.595Z,1.531982
2023-01-22T09:22:24.348Z,1.562195
2023-01-22T09:23:34.033Z,1.662903
2023-01-22T09:24:43.684Z,1.803894
2023-01-22T09:25:53.350Z,1.914673
2023-01-22T09:27:01.985Z,1.995239
2023-01-22T09:28:11.657Z,2.106018
2023-01-22T09:29:20.322Z,2.12616
2023-01-22T09:30:30.316Z,2.106018
2023-01-22T09:31:39.762Z,2.095947
2023-01-22T09:32:47.451Z,2.146301
2023-01-22T09:33:57.017Z,2.236938
2023-01-22T09:35:05.698Z,2.307434
2023-01-22T09:36:15.353Z,2.418213
2023-01-22T09:37:25.026Z,2.327576
2023-01-22T09:38:33.733Z,2.357788
2023-01-22T09:39:43.381Z,2.347717
2023-01-22T09:40:52.043Z,2.307434
2023-01-22T09:41:59.693Z,2.13623
2023-01-22T09:43:09.385Z,1.944885
2023-01-22T09:44:18.132Z,1.803894
2023-01-22T09:45:26.762Z,1.773682
2023-01-22T09:46:36.446Z,1.763611
2023-01-22T09:47:44.112Z,1.813965
2023-01-22T09:48:53.883Z,1.763611
2023-01-22T09:50:03.416Z,1.703186
2023-01-22T09:51:11.099Z,1.703186
2023-01-22T09:52:20.725Z,1.662903
2023-01-22T09:53:29.370Z,1.63269
2023-01-22T09:54:39.142Z,1.592407
2023-01-22T09:55:48.930Z,1.592407
2023-01-22T09:56:58.290Z,1.582336
2023-01-22T09:58:07.953Z,1.562195
2023-01-22T09:59:17.590Z,1.521912
2023-01-22T10:00:26.299Z,1.441345
2023-01-22T10:01:36.002Z,1.451416
2023-01-22T10:02:44.751Z,1.441345
2023-01-22T10:03:52.320Z,1.441345
2023-01-22T10:05:02.093Z,1.491699
2023-01-22T10:06:09.649Z,1.481628
2023-01-22T10:07:19.325Z,1.401062
2023-01-22T10:08:28.997Z,1.451416
2023-01-22T10:09:37.669Z,1.521912
2023-01-22T10:10:47.333Z,1.562195
2023-01-22T10:11:55.008Z,1.521912
2023-01-22T10:13:03.686Z,1.50177
2023-01-22T10:14:13.388Z,1.481628
2023-01-22T10:15:22.067Z,1.37085
2023-01-22T10:16:31.743Z,1.411133
2023-01-22T10:17:40.443Z,1.401062
2023-01-22T10:18:50.092Z,1.300354
2023-01-22T10:19:59.729Z,1.320496
2023-01-22T10:21:07.516Z,1.320496
2023-01-22T10:22:17.040Z,1.340637
2023-01-22T10:23:26.852Z,1.280212
2023-01-22T10:24:34.497Z,1.300354
2023-01-22T10:25:44.182Z,1.239929
2023-01-22T10:26:52.872Z,1.280212
2023-01-22T10:28:00.532Z,1.320496
2023-01-22T10:29:10.204Z,1.340637
2023-01-22T10:30:18.125Z,1.421204
2023-01-22T10:31:27.749Z,1.562195
2023-01-22T10:32:37.192Z,1.713257
2023-01-22T10:33:44.881Z,1.803894
2023-01-22T10:34:54.570Z,1.894531
2023-01-22T10:36:02.224Z,2.055664
2023-01-22T10:37:10.010Z,2.095947
2023-01-22T10:38:19.563Z,1.985168
2023-01-22T10:39:28.230Z,2.035522
2023-01-22T10:40:38.003Z,1.985168
2023-01-22T10:41:47.593Z,1.914673
2023-01-22T10:42:56.255Z,1.763611
2023-01-22T10:44:05.880Z,1.803894
2023-01-22T10:45:14.536Z,1.944885
2023-01-22T10:46:23.303Z,1.954956
2023-01-22T10:47:31.909Z,1.944885
2023-01-22T10:48:40.587Z,2.055664
2023-01-22T10:49:49.283Z,2.146301
2023-01-22T10:50:59.066Z,2.327576
2023-01-22T10:52:07.638Z,2.488708
2023-01-22T10:53:23.256Z,2.599487
2023-01-22T10:54:32.967Z,2.790833
2023-01-22T10:55:34.745Z,2.901611
2023-01-22T10:56:44.285Z,3.072815
2023-01-22T10:57:52.955Z,3.072815
2023-01-22T10:59:02.607Z,3.082886
2023-01-22T11:00:12.272Z,2.972107
2023-01-22T11:01:20.994Z,2.921753
2023-01-22T11:02:30.635Z,2.710266
2023-01-22T11:03:39.363Z,2.800903
2023-01-22T11:04:48.061Z,2.750549
2023-01-22T11:05:57.732Z,2.649841
2023-01-22T11:07:06.371Z,2.649841
2023-01-22T11:08:15.045Z,2.639771
2023-01-22T11:09:24.727Z,2.498779
2023-01-22T11:10:33.394Z,2.528992
2023-01-22T11:11:43.183Z,2.468567
2023-01-22T11:12:52.802Z,2.458496
2023-01-22T11:14:02.472Z,2.528992
2023-01-22T11:15:12.237Z,2.649841
2023-01-22T11:16:19.915Z,2.770691
2023-01-22T11:17:28.566Z,2.790833
2023-01-22T11:18:38.239Z,2.690125
2023-01-22T11:19:46.931Z,2.690125
2023-01-22T11:20:56.609Z,2.680054
2023-01-22T11:22:06.274Z,2.609558
2023-01-22T11:23:13.934Z,2.488708
2023-01-22T11:24:23.593Z,2.498779
2023-01-22T11:25:32.289Z,2.347717
2023-01-22T11:26:41.958Z,2.25708
2023-01-22T11:27:51.741Z,2.25708
2023-01-22T11:29:00.277Z,2.247009
2023-01-22T11:30:09.975Z,2.13623
2023-01-22T11:31:19.755Z,2.065735
2023-01-22T11:32:29.281Z,1.995239
2023-01-22T11:33:37.976Z,2.055664
2023-01-22T11:34:45.615Z,1.995239
2023-01-22T11:35:55.281Z,2.035522
2023-01-22T11:37:03.990Z,2.035522
2023-01-22T11:38:12.663Z,2.035522
2023-01-22T11:39:22.324Z,1.995239
2023-01-22T11:40:29.978Z,2.095947
2023-01-22T11:41:39.634Z,2.106018
2023-01-22T11:42:49.293Z,2.095947
2023-01-22T11:43:57.071Z,2.106018
2023-01-22T11:45:06.678Z,2.095947
2023-01-22T11:46:15.431Z,2.015381
2023-01-22T11:47:24.994Z,1.995239
2023-01-22T11:48:34.686Z,1.965027
2023-01-22T11:49:44.403Z,1.813965
2023-01-22T11:50:54.099Z,1.743469
2023-01-22T11:52:03.772Z,1.733398
2023-01-22T11:53:13.465Z,1.743469
2023-01-22T11:54:23.164Z,1.87439
2023-01-22T11:55:31.873Z,1.854248
2023-01-22T11:56:40.529Z,1.743469
2023-01-22T11:57:50.192Z,1.562195
2023-01-22T11:58:57.867Z,1.552124
2023-01-22T12:00:07.682Z,1.63269
2023-01-22T12:01:17.320Z,1.713257
2023-01-22T12:02:26.094Z,1.773682
2023-01-22T12:03:35.733Z,1.803894
2023-01-22T12:04:43.417Z,1.783752
2023-01-22T12:05:52.090Z,1.733398
2023-01-22T12:07:01.859Z,1.733398
2023-01-22T12:08:09.535Z,1.773682
2023-01-22T12:09:19.219Z,1.773682
2023-01-22T12:10:28.884Z,1.803894
2023-01-22T12:11:37.563Z,1.733398
2023-01-22T12:12:47.290Z,1.703186
2023-01-22T12:13:55.980Z,1.813965
2023-01-22T12:15:05.635Z,1.87439
2023-01-22T12:16:15.507Z,1.813965
2023-01-22T12:17:23.993Z,1.87439
2023-01-22T12:18:33.739Z,1.813965
2023-01-22T12:19:43.413Z,1.87439
2023-01-22T12:20:53.079Z,2.015381
2023-01-22T12:22:02.789Z,2.196655
2023-01-22T12:23:11.442Z,2.307434
2023-01-22T12:24:20.142Z,2.428284
2023-01-22T12:25:29.853Z,2.307434
2023-01-22T12:26:38.608Z,2.216797
2023-01-22T12:27:48.278Z,2.12616
2023-01-22T12:28:56.948Z,2.095947
2023-01-22T12:30:06.627Z,2.095947
2023-01-22T12:31:16.394Z,2.095947
2023-01-22T12:32:25.123Z,2.095947
2023-01-22T12:33:34.656Z,2.13623
2023-01-22T12:34:44.334Z,2.13623
2023-01-22T12:35:54.002Z,1.995239
2023-01-22T12:37:03.689Z,1.62262
2023-01-22T12:38:13.335Z,1.592407
2023-01-22T12:39:22.981Z,1.521912
2023-01-22T12:40:32.656Z,1.401062
2023-01-22T12:41:41.375Z,1.320496
2023-01-22T12:42:50.063Z,1.310425
2023-01-22T12:43:59.746Z,1.340637
2023-01-22T12:45:09.422Z,1.239929
2023-01-22T12:46:19.151Z,1.189575
2023-01-22T12:47:28.885Z,1.189575
2023-01-22T12:48:38.477Z,1.219788
2023-01-22T12:49:48.154Z,1.320496
2023-01-22T12:50:57.910Z,1.350708
2023-01-22T12:52:07.510Z,1.411133
2023-01-22T12:53:17.229Z,1.37085
2023-01-22T12:54:25.951Z,1.280212
2023-01-22T12:55:35.582Z,1.280212
2023-01-22T12:56:45.258Z,1.260071
2023-01-22T12:57:53.917Z,1.229858
2023-01-22T12:59:03.589Z,1.199646
2023-01-22T13:00:13.260Z,1.139221
2023-01-22T13:01:21.929Z,1.098938
2023-01-22T13:02:31.720Z,1.11908
2023-01-22T13:03:40.322Z,1.098938
2023-01-22T13:04:50.005Z,1.11908
2023-01-22T13:05:59.770Z,1.159363
2023-01-22T13:07:09.398Z,1.199646
2023-01-22T13:08:18.083Z,1.229858
2023-01-22T13:09:26.730Z,1.300354
2023-01-22T13:10:35.433Z,1.340637
2023-01-22T13:11:46.096Z,1.37085
2023-01-22T13:12:54.757Z,1.37085
2023-01-22T13:14:14.702Z,1.340637
2023-01-22T13:15:15.143Z,1.280212
2023-01-22T13:16:22.911Z,1.219788
2023-01-22T13:17:32.488Z,1.098938
2023-01-22T13:18:41.310Z,1.008301
2023-01-22T13:19:49.832Z,0.957947